sensor_id;sensor_type;location;lat;lon;timestamp;pressure;altitude;pressure_sealevel;temperature;humidity
4617;BME280;2321;42.704;23.384;2022-11-11T00:01:49;96601.84;;;7.21;100.00
4617;BME280;2321;42.704;23.384;2022-11-11T00:04:16;96601.28;;;7.17;100.00
4617;BME280;2321;42.704;23.384;2022-11-11T00:06:42;96596.53;;;7.21;100.00
4617;BME280;2321;42.704;23.384;2022-11-11T00:09:11;96598.06;;;7.13;100.00
4617;BME280;2321;42.704;23.384;2022-11-11T00:11:38;96585.66;;;7.14;100.00
4617;BME280;2321;42.704;23.384;2022-11-11T00:14:05;96595.53;;;7.12;100.00
4617;BME280;2321;42.704;23.384;2022-11-11T00:16:32;96592.59;;;7.15;100.00
4617;BME280;2321;42.704;23.384;2022-11-11T00:19:12;96598.91;;;7.04;100.00
4617;BME280;2321;42.704;23.384;2022-11-11T00:21:56;96600.59;;;7.05;100.00
4617;BME280;2321;42.704;23.384;2022-11-11T00:24:42;96593.75;;;6.92;100.00
4617;BME280;2321;42.704;23.384;2022-11-11T00:27:26;96595.56;;;6.92;100.00
4617;BME280;2321;42.704;23.384;2022-11-11T00:29:54;96604.91;;;6.96;100.00
4617;BME280;2321;42.704;23.384;2022-11-11T00:32:20;96608.66;;;7.03;100.00
4617;BME280;2321;42.704;23.384;2022-11-11T00:34:54;96597.66;;;7.08;100.00
4617;BME280;2321;42.704;23.384;2022-11-11T00:37:39;96610.91;;;6.98;100.00
4617;BME280;2321;42.704;23.384;2022-11-11T00:40:09;96606.56;;;6.97;100.00
4617;BME280;2321;42.704;23.384;2022-11-11T00:42:37;96607.13;;;7.01;100.00
4617;BME280;2321;42.704;23.384;2022-11-11T00:45:05;96604.75;;;6.97;100.00
4617;BME280;2321;42.704;23.384;2022-11-11T00:47:32;96612.00;;;6.95;100.00
4617;BME280;2321;42.704;23.384;2022-11-11T00:50:18;96609.50;;;6.74;100.00
4617;BME280;2321;42.704;23.384;2022-11-11T00:53:03;96607.97;;;6.71;100.00
4617;BME280;2321;42.704;23.384;2022-11-11T00:55:35;96600.56;;;6.75;100.00
4617;BME280;2321;42.704;23.384;2022-11-11T00:58:01;96596.81;;;6.78;100.00
4617;BME280;2321;42.704;23.384;2022-11-11T01:00:28;96597.09;;;6.74;100.00
4617;BME280;2321;42.704;23.384;2022-11-11T01:02:56;96600.97;;;6.70;100.00
4617;BME280;2321;42.704;23.384;2022-11-11T01:05:23;96596.38;;;6.72;100.00
4617;BME280;2321;42.704;23.384;2022-11-11T01:07:50;96591.81;;;6.74;100.00
4617;BME280;2321;42.704;23.384;2022-11-11T01:10:18;96590.13;;;6.73;100.00
4617;BME280;2321;42.704;23.384;2022-11-11T01:13:00;96589.44;;;6.71;100.00
4617;BME280;2321;42.704;23.384;2022-11-11T01:15:37;96590.09;;;6.63;100.00
4617;BME280;2321;42.704;23.384;2022-11-11T01:18:05;96597.06;;;6.64;100.00
4617;BME280;2321;42.704;23.384;2022-11-11T01:20:32;96588.72;;;6.69;100.00
4617;BME280;2321;42.704;23.384;2022-11-11T01:22:59;96589.25;;;6.63;100.00
4617;BME280;2321;42.704;23.384;2022-11-11T01:25:26;96589.53;;;6.60;100.00
4617;BME280;2321;42.704;23.384;2022-11-11T01:27:53;96590.09;;;6.63;100.00
4617;BME280;2321;42.704;23.384;2022-11-11T01:30:21;96592.34;;;6.68;100.00
4617;BME280;2321;42.704;23.384;2022-11-11T01:32:48;96590.38;;;6.70;100.00
4617;BME280;2321;42.704;23.384;2022-11-11T01:35:15;96584.25;;;6.60;100.00
4617;BME280;2321;42.704;23.384;2022-11-11T01:37:42;96587.84;;;6.49;100.00
4617;BME280;2321;42.704;23.384;2022-11-11T01:40:10;96583.13;;;6.52;100.00
4617;BME280;2321;42.704;23.384;2022-11-11T01:42:48;96583.56;;;6.58;100.00
4617;BME280;2321;42.704;23.384;2022-11-11T01:45:50;96586.47;;;6.54;100.00
4617;BME280;2321;42.704;23.384;2022-11-11T01:48:21;96588.25;;;6.44;100.00
4617;BME280;2321;42.704;23.384;2022-11-11T01:51:13;96595.50;;;6.42;100.00
4617;BME280;2321;42.704;23.384;2022-11-11T01:53:41;96593.41;;;6.46;100.00
4617;BME280;2321;42.704;23.384;2022-11-11T01:56:09;96593.13;;;6.39;100.00
4617;BME280;2321;42.704;23.384;2022-11-11T01:58:37;96587.69;;;6.30;100.00
4617;BME280;2321;42.704;23.384;2022-11-11T02:01:06;96591.97;;;6.21;100.00
4617;BME280;2321;42.704;23.384;2022-11-11T02:03:37;96598.97;;;6.32;100.00
4617;BME280;2321;42.704;23.384;2022-11-11T02:06:06;96597.53;;;6.18;100.00
4617;BME280;2321;42.704;23.384;2022-11-11T02:08:33;96601.28;;;6.26;100.00
4617;BME280;2321;42.704;23.384;2022-11-11T02:11:03;96601.13;;;6.17;100.00
4617;BME280;2321;42.704;23.384;2022-11-11T02:13:32;96604.47;;;6.09;100.00
4617;BME280;2321;42.704;23.384;2022-11-11T02:16:18;96610.59;;;6.20;100.00
4617;BME280;2321;42.704;23.384;2022-11-11T02:18:44;96612.63;;;6.06;100.00
4617;BME280;2321;42.704;23.384;2022-11-11T02:21:14;96610.19;;;6.15;100.00
4617;BME280;2321;42.704;23.384;2022-11-11T02:23:51;96607.94;;;6.10;100.00
4617;BME280;2321;42.704;23.384;2022-11-11T02:26:19;96609.00;;;5.97;100.00
4617;BME280;2321;42.704;23.384;2022-11-11T02:28:48;96606.88;;;6.01;100.00
4617;BME280;2321;42.704;23.384;2022-11-11T02:31:17;96610.00;;;6.06;100.00
4617;BME280;2321;42.704;23.384;2022-11-11T02:33:44;96608.16;;;5.97;100.00
4617;BME280;2321;42.704;23.384;2022-11-11T02:36:13;96613.00;;;5.92;100.00
4617;BME280;2321;42.704;23.384;2022-11-11T02:38:42;96607.66;;;5.82;100.00
4617;BME280;2321;42.704;23.384;2022-11-11T02:41:10;96612.53;;;5.86;100.00
4617;BME280;2321;42.704;23.384;2022-11-11T02:44:00;96607.13;;;5.88;100.00
4617;BME280;2321;42.704;23.384;2022-11-11T02:46:27;96601.47;;;5.71;100.00
4617;BME280;2321;42.704;23.384;2022-11-11T02:48:54;96619.03;;;5.72;100.00
4617;BME280;2321;42.704;23.384;2022-11-11T02:51:21;96619.41;;;5.67;100.00
4617;BME280;2321;42.704;23.384;2022-11-11T02:53:47;96617.59;;;5.68;100.00
4617;BME280;2321;42.704;23.384;2022-11-11T02:56:16;96618.00;;;5.63;100.00
4617;BME280;2321;42.704;23.384;2022-11-11T02:59:03;96618.19;;;5.50;100.00
4617;BME280;2321;42.704;23.384;2022-11-11T03:01:29;96624.94;;;5.43;100.00
4617;BME280;2321;42.704;23.384;2022-11-11T03:03:56;96623.56;;;5.39;100.00
4617;BME280;2321;42.704;23.384;2022-11-11T03:06:23;96616.91;;;5.44;100.00
4617;BME280;2321;42.704;23.384;2022-11-11T03:08:50;96620.22;;;5.37;100.00
4617;BME280;2321;42.704;23.384;2022-11-11T03:11:18;96618.19;;;5.29;100.00
4617;BME280;2321;42.704;23.384;2022-11-11T03:13:52;96626.53;;;5.24;100.00
4617;BME280;2321;42.704;23.384;2022-11-11T03:16:19;96619.56;;;5.23;100.00
4617;BME280;2321;42.704;23.384;2022-11-11T03:19:00;96614.38;;;5.21;100.00
4617;BME280;2321;42.704;23.384;2022-11-11T03:21:27;96616.84;;;5.13;100.00
4617;BME280;2321;42.704;23.384;2022-11-11T03:23:54;96613.84;;;5.06;100.00
4617;BME280;2321;42.704;23.384;2022-11-11T03:26:22;96608.91;;;5.13;100.00
4617;BME280;2321;42.704;23.384;2022-11-11T03:28:49;96607.25;;;5.12;100.00
4617;BME280;2321;42.704;23.384;2022-11-11T03:31:16;96623.34;;;5.09;100.00
4617;BME280;2321;42.704;23.384;2022-11-11T03:33:43;96606.16;;;5.15;100.00
4617;BME280;2321;42.704;23.384;2022-11-11T03:36:10;96617.03;;;5.21;100.00
4617;BME280;2321;42.704;23.384;2022-11-11T03:38:37;96609.09;;;5.21;100.00
4617;BME280;2321;42.704;23.384;2022-11-11T03:41:03;96609.34;;;5.18;100.00
4617;BME280;2321;42.704;23.384;2022-11-11T03:43:33;96614.53;;;5.20;100.00
4617;BME280;2321;42.704;23.384;2022-11-11T03:46:01;96620.72;;;5.30;100.00
4617;BME280;2321;42.704;23.384;2022-11-11T03:48:31;96602.59;;;5.26;100.00
4617;BME280;2321;42.704;23.384;2022-11-11T03:50:58;96607.31;;;5.43;100.00
4617;BME280;2321;42.704;23.384;2022-11-11T03:53:25;96609.00;;;5.44;100.00
4617;BME280;2321;42.704;23.384;2022-11-11T03:55:52;96617.63;;;5.47;100.00
4617;BME280;2321;42.704;23.384;2022-11-11T03:58:19;96606.28;;;5.56;100.00
4617;BME280;2321;42.704;23.384;2022-11-11T04:00:47;96619.91;;;5.61;100.00
4617;BME280;2321;42.704;23.384;2022-11-11T04:03:15;96616.75;;;5.67;100.00
4617;BME280;2321;42.704;23.384;2022-11-11T04:06:14;96603.44;;;5.69;100.00
4617;BME280;2321;42.704;23.384;2022-11-11T04:08:58;96601.53;;;5.81;100.00
4617;BME280;2321;42.704;23.384;2022-11-11T04:11:45;96608.16;;;5.97;100.00
4617;BME280;2321;42.704;23.384;2022-11-11T04:14:13;96600.63;;;6.02;100.00
4617;BME280;2321;42.704;23.384;2022-11-11T04:16:59;96609.41;;;6.03;100.00
4617;BME280;2321;42.704;23.384;2022-11-11T04:19:26;96612.53;;;6.08;100.00
4617;BME280;2321;42.704;23.384;2022-11-11T04:22:13;96613.09;;;6.12;100.00
4617;BME280;2321;42.704;23.384;2022-11-11T04:24:40;96611.16;;;6.14;100.00
4617;BME280;2321;42.704;23.384;2022-11-11T04:27:24;96617.84;;;6.18;100.00
4617;BME280;2321;42.704;23.384;2022-11-11T04:29:51;96619.22;;;6.12;100.00
4617;BME280;2321;42.704;23.384;2022-11-11T04:32:20;96624.41;;;6.24;100.00
4617;BME280;2321;42.704;23.384;2022-11-11T04:35:05;96598.38;;;6.19;100.00
4617;BME280;2321;42.704;23.384;2022-11-11T04:37:34;96622.22;;;6.39;100.00
4617;BME280;2321;42.704;23.384;2022-11-11T04:40:01;96614.84;;;6.42;100.00
4617;BME280;2321;42.704;23.384;2022-11-11T04:42:45;96617.78;;;6.39;100.00
4617;BME280;2321;42.704;23.384;2022-11-11T04:45:13;96617.22;;;6.46;100.00
4617;BME280;2321;42.704;23.384;2022-11-11T04:47:58;96614.84;;;6.42;100.00
4617;BME280;2321;42.704;23.384;2022-11-11T04:50:27;96616.16;;;6.58;100.00
4617;BME280;2321;42.704;23.384;2022-11-11T04:52:54;96619.63;;;6.59;100.00
4617;BME280;2321;42.704;23.384;2022-11-11T04:55:21;96617.13;;;6.67;100.00
4617;BME280;2321;42.704;23.384;2022-11-11T04:58:06;96617.56;;;6.72;100.00
4617;BME280;2321;42.704;23.384;2022-11-11T05:00:33;96626.50;;;6.71;100.00
4617;BME280;2321;42.704;23.384;2022-11-11T05:03:01;96627.59;;;6.79;100.00
4617;BME280;2321;42.704;23.384;2022-11-11T05:05:44;96630.50;;;6.75;100.00
4617;BME280;2321;42.704;23.384;2022-11-11T05:08:28;96619.50;;;6.70;100.00
4617;BME280;2321;42.704;23.384;2022-11-11T05:11:13;96624.53;;;6.73;100.00
4617;BME280;2321;42.704;23.384;2022-11-11T05:13:40;96620.75;;;6.76;100.00
4617;BME280;2321;42.704;23.384;2022-11-11T05:16:26;96628.84;;;6.74;100.00
4617;BME280;2321;42.704;23.384;2022-11-11T05:19:14;96605.00;;;6.54;100.00
4617;BME280;2321;42.704;23.384;2022-11-11T05:22:05;96629.41;;;6.78;100.00
4617;BME280;2321;42.704;23.384;2022-11-11T05:24:34;96635.66;;;6.87;100.00
4617;BME280;2321;42.704;23.384;2022-11-11T05:27:19;96635.13;;;6.83;100.00
4617;BME280;2321;42.704;23.384;2022-11-11T05:29:46;96636.66;;;6.86;100.00
4617;BME280;2321;42.704;23.384;2022-11-11T05:32:15;96640.28;;;6.85;100.00
4617;BME280;2321;42.704;23.384;2022-11-11T05:34:44;96649.78;;;6.97;100.00
4617;BME280;2321;42.704;23.384;2022-11-11T05:37:11;96602.50;;;6.73;100.00
4617;BME280;2321;42.704;23.384;2022-11-11T05:39:38;96656.31;;;7.03;100.00
4617;BME280;2321;42.704;23.384;2022-11-11T05:42:05;96653.81;;;7.12;100.00
4617;BME280;2321;42.704;23.384;2022-11-11T05:44:32;96660.94;;;7.11;100.00
4617;BME280;2321;42.704;23.384;2022-11-11T05:46:59;96670.13;;;7.27;100.00
4617;BME280;2321;42.704;23.384;2022-11-11T05:49:26;96669.84;;;7.30;100.00
4617;BME280;2321;42.704;23.384;2022-11-11T05:51:54;96672.38;;;7.32;100.00
4617;BME280;2321;42.704;23.384;2022-11-11T05:54:21;96674.59;;;7.36;100.00
4617;BME280;2321;42.704;23.384;2022-11-11T05:56:49;96681.00;;;7.44;100.00
4617;BME280;2321;42.704;23.384;2022-11-11T05:59:16;96675.31;;;7.38;100.00
4617;BME280;2321;42.704;23.384;2022-11-11T06:01:43;96689.38;;;7.49;100.00
4617;BME280;2321;42.704;23.384;2022-11-11T06:04:11;96686.59;;;7.50;100.00
4617;BME280;2321;42.704;23.384;2022-11-11T06:06:38;96689.09;;;7.52;100.00
4617;BME280;2321;42.704;23.384;2022-11-11T06:09:06;96694.66;;;7.59;100.00
4617;BME280;2321;42.704;23.384;2022-11-11T06:11:33;96696.59;;;7.67;100.00
4617;BME280;2321;42.704;23.384;2022-11-11T06:14:00;96697.72;;;7.74;100.00
4617;BME280;2321;42.704;23.384;2022-11-11T06:16:27;96693.53;;;7.81;100.00
4617;BME280;2321;42.704;23.384;2022-11-11T06:18:54;96702.00;;;7.85;100.00
4617;BME280;2321;42.704;23.384;2022-11-11T06:21:21;96705.50;;;7.95;100.00
4617;BME280;2321;42.704;23.384;2022-11-11T06:23:48;96706.19;;;7.98;100.00
4617;BME280;2321;42.704;23.384;2022-11-11T06:26:16;96675.25;;;7.78;100.00
4617;BME280;2321;42.704;23.384;2022-11-11T06:28:45;96709.53;;;8.00;100.00
4617;BME280;2321;42.704;23.384;2022-11-11T06:31:15;96713.25;;;8.17;100.00
4617;BME280;2321;42.704;23.384;2022-11-11T06:33:42;96712.84;;;8.22;100.00
4617;BME280;2321;42.704;23.384;2022-11-11T06:36:10;96721.88;;;8.29;100.00
4617;BME280;2321;42.704;23.384;2022-11-11T06:38:38;96713.88;;;8.39;100.00
4617;BME280;2321;42.704;23.384;2022-11-11T06:41:06;96721.56;;;8.42;100.00
4617;BME280;2321;42.704;23.384;2022-11-11T06:43:34;96719.47;;;8.46;100.00
4617;BME280;2321;42.704;23.384;2022-11-11T06:46:01;96726.28;;;8.48;100.00
4617;BME280;2321;42.704;23.384;2022-11-11T06:48:28;96726.00;;;8.62;100.00
4617;BME280;2321;42.704;23.384;2022-11-11T06:51:00;96722.59;;;8.69;100.00
4617;BME280;2321;42.704;23.384;2022-11-11T06:53:28;96722.44;;;8.71;100.00
4617;BME280;2321;42.704;23.384;2022-11-11T06:55:55;96721.13;;;8.85;100.00
4617;BME280;2321;42.704;23.384;2022-11-11T06:58:22;96714.03;;;9.04;100.00
4617;BME280;2321;42.704;23.384;2022-11-11T07:00:51;96718.16;;;9.17;100.00
4617;BME280;2321;42.704;23.384;2022-11-11T07:03:19;96724.69;;;9.41;100.00
4617;BME280;2321;42.704;23.384;2022-11-11T07:05:46;96720.19;;;9.59;100.00
4617;BME280;2321;42.704;23.384;2022-11-11T07:08:16;96714.31;;;9.74;100.00
4617;BME280;2321;42.704;23.384;2022-11-11T07:10:45;96697.00;;;9.70;100.00
4617;BME280;2321;42.704;23.384;2022-11-11T07:13:12;96727.13;;;9.97;100.00
4617;BME280;2321;42.704;23.384;2022-11-11T07:15:39;96714.88;;;10.05;100.00
4617;BME280;2321;42.704;23.384;2022-11-11T07:18:08;96711.94;;;10.16;100.00
4617;BME280;2321;42.704;23.384;2022-11-11T07:20:35;96721.97;;;10.22;100.00
4617;BME280;2321;42.704;23.384;2022-11-11T07:23:05;96730.69;;;10.33;100.00
4617;BME280;2321;42.704;23.384;2022-11-11T07:25:33;96729.06;;;10.40;100.00
4617;BME280;2321;42.704;23.384;2022-11-11T07:27:59;96722.25;;;10.46;100.00
4617;BME280;2321;42.704;23.384;2022-11-11T07:30:26;96733.16;;;10.53;100.00
4617;BME280;2321;42.704;23.384;2022-11-11T07:32:53;96737.84;;;10.59;100.00
4617;BME280;2321;42.704;23.384;2022-11-11T07:35:22;96733.03;;;10.63;100.00
4617;BME280;2321;42.704;23.384;2022-11-11T07:37:49;96735.22;;;10.67;100.00
4617;BME280;2321;42.704;23.384;2022-11-11T07:40:17;96743.56;;;10.73;100.00
4617;BME280;2321;42.704;23.384;2022-11-11T07:42:45;96745.22;;;10.74;100.00
4617;BME280;2321;42.704;23.384;2022-11-11T07:45:12;96754.72;;;10.76;100.00
4617;BME280;2321;42.704;23.384;2022-11-11T07:47:42;96758.94;;;10.79;100.00
4617;BME280;2321;42.704;23.384;2022-11-11T07:50:09;96762.56;;;10.78;100.00
4617;BME280;2321;42.704;23.384;2022-11-11T07:52:37;96750.72;;;10.72;100.00
4617;BME280;2321;42.704;23.384;2022-11-11T07:55:05;96768.56;;;10.80;100.00
4617;BME280;2321;42.704;23.384;2022-11-11T07:57:32;96765.59;;;10.83;100.00
4617;BME280;2321;42.704;23.384;2022-11-11T07:59:59;96771.59;;;10.85;100.00
4617;BME280;2321;42.704;23.384;2022-11-11T08:02:26;96769.41;;;10.81;100.00
4617;BME280;2321;42.704;23.384;2022-11-11T08:04:53;96775.25;;;10.84;100.00
4617;BME280;2321;42.704;23.384;2022-11-11T08:07:20;96767.78;;;10.88;100.00
4617;BME280;2321;42.704;23.384;2022-11-11T08:09:48;96770.59;;;10.86;100.00
4617;BME280;2321;42.704;23.384;2022-11-11T08:12:15;96767.94;;;10.86;100.00
4617;BME280;2321;42.704;23.384;2022-11-11T08:14:59;96767.59;;;10.89;100.00
4617;BME280;2321;42.704;23.384;2022-11-11T08:17:26;96771.63;;;10.94;100.00
4617;BME280;2321;42.704;23.384;2022-11-11T08:19:53;96774.81;;;10.97;100.00
4617;BME280;2321;42.704;23.384;2022-11-11T08:22:20;96769.00;;;11.02;100.00
4617;BME280;2321;42.704;23.384;2022-11-11T08:24:48;96771.69;;;11.10;100.00
4617;BME280;2321;42.704;23.384;2022-11-11T08:27:15;96770.53;;;11.13;100.00
4617;BME280;2321;42.704;23.384;2022-11-11T08:29:42;96766.41;;;11.19;100.00
4617;BME280;2321;42.704;23.384;2022-11-11T08:32:09;96770.38;;;11.23;100.00
4617;BME280;2321;42.704;23.384;2022-11-11T08:34:36;96774.75;;;11.32;100.00
4617;BME280;2321;42.704;23.384;2022-11-11T08:37:03;96774.09;;;11.39;100.00
4617;BME280;2321;42.704;23.384;2022-11-11T08:39:30;96776.63;;;11.40;100.00
4617;BME280;2321;42.704;23.384;2022-11-11T08:41:58;96777.94;;;11.44;100.00
4617;BME280;2321;42.704;23.384;2022-11-11T08:44:25;96780.13;;;11.49;100.00
4617;BME280;2321;42.704;23.384;2022-11-11T08:46:52;96780.78;;;11.51;100.00
4617;BME280;2321;42.704;23.384;2022-11-11T08:49:18;96775.13;;;11.54;100.00
4617;BME280;2321;42.704;23.384;2022-11-11T08:51:45;96778.31;;;11.66;100.00
4617;BME280;2321;42.704;23.384;2022-11-11T08:54:12;96776.31;;;11.69;100.00
4617;BME280;2321;42.704;23.384;2022-11-11T08:56:39;96776.50;;;11.75;100.00
4617;BME280;2321;42.704;23.384;2022-11-11T08:59:08;96779.16;;;11.84;100.00
4617;BME280;2321;42.704;23.384;2022-11-11T09:01:35;96777.00;;;11.87;100.00
4617;BME280;2321;42.704;23.384;2022-11-11T09:04:02;96776.66;;;11.91;100.00
4617;BME280;2321;42.704;23.384;2022-11-11T09:06:29;96775.81;;;11.90;100.00
4617;BME280;2321;42.704;23.384;2022-11-11T09:08:56;96779.00;;;11.94;100.00
4617;BME280;2321;42.704;23.384;2022-11-11T09:11:23;96770.84;;;11.95;100.00
4617;BME280;2321;42.704;23.384;2022-11-11T09:13:50;96768.31;;;12.02;100.00
4617;BME280;2321;42.704;23.384;2022-11-11T09:16:18;96770.16;;;12.10;100.00
4617;BME280;2321;42.704;23.384;2022-11-11T09:18:45;96775.69;;;12.17;100.00
4617;BME280;2321;42.704;23.384;2022-11-11T09:21:12;96782.03;;;12.24;100.00
4617;BME280;2321;42.704;23.384;2022-11-11T09:23:39;96775.84;;;12.32;100.00
4617;BME280;2321;42.704;23.384;2022-11-11T09:26:06;96779.34;;;12.41;100.00
4617;BME280;2321;42.704;23.384;2022-11-11T09:28:33;96777.31;;;12.51;100.00
4617;BME280;2321;42.704;23.384;2022-11-11T09:31:01;96775.44;;;12.60;100.00
4617;BME280;2321;42.704;23.384;2022-11-11T09:33:29;96778.47;;;12.57;100.00
4617;BME280;2321;42.704;23.384;2022-11-11T09:35:56;96780.47;;;12.55;100.00
4617;BME280;2321;42.704;23.384;2022-11-11T09:38:23;96772.31;;;12.48;100.00
4617;BME280;2321;42.704;23.384;2022-11-11T09:41:00;96764.97;;;12.50;100.00
4617;BME280;2321;42.704;23.384;2022-11-11T09:43:37;96764.28;;;12.48;100.00
4617;BME280;2321;42.704;23.384;2022-11-11T09:46:20;96765.81;;;12.42;100.00
4617;BME280;2321;42.704;23.384;2022-11-11T09:49:09;96758.81;;;12.33;100.00
4617;BME280;2321;42.704;23.384;2022-11-11T09:51:46;96752.97;;;12.38;100.00
4617;BME280;2321;42.704;23.384;2022-11-11T09:54:17;96741.94;;;12.41;100.00
4617;BME280;2321;42.704;23.384;2022-11-11T09:56:45;96750.13;;;12.48;100.00
4617;BME280;2321;42.704;23.384;2022-11-11T09:59:15;96758.59;;;12.51;100.00
4617;BME280;2321;42.704;23.384;2022-11-11T10:01:47;96753.75;;;12.55;100.00
4617;BME280;2321;42.704;23.384;2022-11-11T10:04:25;96754.91;;;12.61;100.00
4617;BME280;2321;42.704;23.384;2022-11-11T10:06:58;96751.06;;;12.63;100.00
4617;BME280;2321;42.704;23.384;2022-11-11T10:09:32;96749.41;;;12.62;100.00
4617;BME280;2321;42.704;23.384;2022-11-11T10:12:06;96759.06;;;12.63;100.00
4617;BME280;2321;42.704;23.384;2022-11-11T10:14:37;96752.06;;;12.62;100.00
4617;BME280;2321;42.704;23.384;2022-11-11T10:17:14;96745.25;;;12.60;100.00
4617;BME280;2321;42.704;23.384;2022-11-11T10:19:53;96760.09;;;12.62;100.00
4617;BME280;2321;42.704;23.384;2022-11-11T10:22:30;96757.75;;;12.59;100.00
4617;BME280;2321;42.704;23.384;2022-11-11T10:25:07;96749.91;;;12.58;100.00
4617;BME280;2321;42.704;23.384;2022-11-11T10:27:34;96750.75;;;12.58;100.00
4617;BME280;2321;42.704;23.384;2022-11-11T10:30:13;96745.75;;;12.55;100.00
4617;BME280;2321;42.704;23.384;2022-11-11T10:32:45;96748.06;;;12.58;100.00
4617;BME280;2321;42.704;23.384;2022-11-11T10:35:17;96740.09;;;12.50;100.00
4617;BME280;2321;42.704;23.384;2022-11-11T10:37:45;96751.09;;;12.55;100.00
4617;BME280;2321;42.704;23.384;2022-11-11T10:40:21;96745.91;;;12.62;100.00
4617;BME280;2321;42.704;23.384;2022-11-11T10:42:51;96747.91;;;12.60;100.00
4617;BME280;2321;42.704;23.384;2022-11-11T10:45:23;96745.41;;;12.58;100.00
4617;BME280;2321;42.704;23.384;2022-11-11T10:47:56;96743.91;;;12.56;100.00
4617;BME280;2321;42.704;23.384;2022-11-11T10:50:28;96736.53;;;12.58;100.00
4617;BME280;2321;42.704;23.384;2022-11-11T10:53:00;96734.38;;;12.61;100.00
4617;BME280;2321;42.704;23.384;2022-11-11T10:55:31;96732.03;;;12.58;100.00
4617;BME280;2321;42.704;23.384;2022-11-11T10:58:07;96730.22;;;12.59;100.00
4617;BME280;2321;42.704;23.384;2022-11-11T11:00:36;96733.88;;;12.58;100.00
4617;BME280;2321;42.704;23.384;2022-11-11T11:03:11;96732.53;;;12.62;100.00
4617;BME280;2321;42.704;23.384;2022-11-11T11:05:45;96722.16;;;12.67;100.00
4617;BME280;2321;42.704;23.384;2022-11-11T11:08:16;96733.00;;;12.74;100.00
4617;BME280;2321;42.704;23.384;2022-11-11T11:10:47;96721.97;;;12.77;100.00
4617;BME280;2321;42.704;23.384;2022-11-11T11:13:20;96721.06;;;12.85;100.00
4617;BME280;2321;42.704;23.384;2022-11-11T11:15:58;96721.91;;;12.94;100.00
4617;BME280;2321;42.704;23.384;2022-11-11T11:18:28;96725.88;;;12.98;100.00
4617;BME280;2321;42.704;23.384;2022-11-11T11:20:58;96713.84;;;13.02;100.00
4617;BME280;2321;42.704;23.384;2022-11-11T11:23:37;96710.28;;;13.10;100.00
4617;BME280;2321;42.704;23.384;2022-11-11T11:26:05;96708.72;;;13.16;100.00
4617;BME280;2321;42.704;23.384;2022-11-11T11:28:32;96709.56;;;13.16;100.00
4617;BME280;2321;42.704;23.384;2022-11-11T11:31:01;96703.03;;;13.19;100.00
4617;BME280;2321;42.704;23.384;2022-11-11T11:33:49;96699.00;;;13.23;100.00
4617;BME280;2321;42.704;23.384;2022-11-11T11:36:18;96694.50;;;13.24;100.00
4617;BME280;2321;42.704;23.384;2022-11-11T11:38:47;96691.97;;;13.22;98.62
4617;BME280;2321;42.704;23.384;2022-11-11T11:41:15;96703.16;;;13.26;96.99
4617;BME280;2321;42.704;23.384;2022-11-11T11:43:43;96703.34;;;13.24;95.54
4617;BME280;2321;42.704;23.384;2022-11-11T11:46:18;96701.31;;;13.26;96.43
4617;BME280;2321;42.704;23.384;2022-11-11T11:48:58;96696.13;;;13.25;96.34
4617;BME280;2321;42.704;23.384;2022-11-11T11:51:34;96697.69;;;13.19;96.77
4617;BME280;2321;42.704;23.384;2022-11-11T11:54:31;96695.84;;;13.20;96.74
4617;BME280;2321;42.704;23.384;2022-11-11T11:57:03;96694.50;;;13.24;97.00
4617;BME280;2321;42.704;23.384;2022-11-11T11:59:38;96693.66;;;13.23;96.68
4617;BME280;2321;42.704;23.384;2022-11-11T12:02:20;96691.47;;;13.27;97.45
4617;BME280;2321;42.704;23.384;2022-11-11T12:05:09;96684.56;;;13.33;97.18
4617;BME280;2321;42.704;23.384;2022-11-11T12:07:55;96688.22;;;13.40;96.73
4617;BME280;2321;42.704;23.384;2022-11-11T12:10:31;96688.66;;;13.44;97.20
4617;BME280;2321;42.704;23.384;2022-11-11T12:13:05;96689.97;;;13.48;95.85
4617;BME280;2321;42.704;23.384;2022-11-11T12:15:38;96691.09;;;13.54;94.86
4617;BME280;2321;42.704;23.384;2022-11-11T12:18:36;96684.44;;;13.49;94.45
4617;BME280;2321;42.704;23.384;2022-11-11T12:21:08;96689.78;;;13.49;92.37
4617;BME280;2321;42.704;23.384;2022-11-11T12:23:56;96683.44;;;13.50;91.97
4617;BME280;2321;42.704;23.384;2022-11-11T12:26:32;96680.97;;;13.49;92.17
4617;BME280;2321;42.704;23.384;2022-11-11T12:29:13;96679.44;;;13.46;92.36
4617;BME280;2321;42.704;23.384;2022-11-11T12:32:03;96673.72;;;13.49;92.58
4617;BME280;2321;42.704;23.384;2022-11-11T12:34:54;96668.22;;;13.51;92.28
4617;BME280;2321;42.704;23.384;2022-11-11T12:37:37;96670.03;;;13.59;92.13
4617;BME280;2321;42.704;23.384;2022-11-11T12:40:17;96671.19;;;13.56;91.54
4617;BME280;2321;42.704;23.384;2022-11-11T12:43:01;96667.88;;;13.54;91.96
4617;BME280;2321;42.704;23.384;2022-11-11T12:45:37;96669.34;;;13.57;92.71
4617;BME280;2321;42.704;23.384;2022-11-11T12:48:19;96680.41;;;13.54;94.86
4617;BME280;2321;42.704;23.384;2022-11-11T12:51:00;96670.34;;;13.56;96.80
4617;BME280;2321;42.704;23.384;2022-11-11T12:53:34;96676.88;;;13.53;97.34
4617;BME280;2321;42.704;23.384;2022-11-11T12:56:10;96671.25;;;13.48;99.27
4617;BME280;2321;42.704;23.384;2022-11-11T12:58:45;96671.06;;;13.49;99.75
4617;BME280;2321;42.704;23.384;2022-11-11T13:01:20;96663.88;;;13.50;99.62
4617;BME280;2321;42.704;23.384;2022-11-11T13:03:56;96665.44;;;13.44;98.32
4617;BME280;2321;42.704;23.384;2022-11-11T13:06:48;96675.97;;;13.46;97.79
4617;BME280;2321;42.704;23.384;2022-11-11T13:09:32;96667.97;;;13.37;97.68
4617;BME280;2321;42.704;23.384;2022-11-11T13:12:09;96674.16;;;13.38;97.42
4617;BME280;2321;42.704;23.384;2022-11-11T13:17:31;96677.69;;;13.38;97.74
4617;BME280;2321;42.704;23.384;2022-11-11T13:20:02;96678.38;;;13.32;97.75
4617;BME280;2321;42.704;23.384;2022-11-11T13:22:31;96679.22;;;13.33;98.06
4617;BME280;2321;42.704;23.384;2022-11-11T13:25:02;96669.88;;;13.28;98.01
4617;BME280;2321;42.704;23.384;2022-11-11T13:27:36;96676.25;;;13.27;98.20
4617;BME280;2321;42.704;23.384;2022-11-11T13:30:31;96678.44;;;13.24;98.90
4617;BME280;2321;42.704;23.384;2022-11-11T13:33:03;96673.94;;;13.24;98.97
4617;BME280;2321;42.704;23.384;2022-11-11T13:35:35;96685.00;;;13.21;98.18